sensor_id;sensor_type;location;lat;lon;timestamp;P1;durP1;ratioP1;P2;durP2;ratioP2
17441;SDS011;8838;50.144;8.176;2024-03-23T00:54:41;20.63;;;13.17;;
17441;SDS011;8838;50.144;8.176;2024-03-23T00:57:07;21.37;;;13.03;;
17441;SDS011;8838;50.144;8.176;2024-03-23T00:59:34;22.47;;;13.43;;
17441;SDS011;8838;50.144;8.176;2024-03-23T01:02:00;22.10;;;12.97;;
17441;SDS011;8838;50.144;8.176;2024-03-23T01:04:26;18.20;;;12.27;;
17441;SDS011;8838;50.144;8.176;2024-03-23T01:06:52;24.70;;;14.30;;
17441;SDS011;8838;50.144;8.176;2024-03-23T01:09:20;24.57;;;13.87;;
17441;SDS011;8838;50.144;8.176;2024-03-23T01:11:47;22.60;;;14.60;;
17441;SDS011;8838;50.144;8.176;2024-03-23T01:14:14;27.83;;;15.10;;
17441;SDS011;8838;50.144;8.176;2024-03-23T01:16:40;28.53;;;16.93;;
17441;SDS011;8838;50.144;8.176;2024-03-23T01:19:07;31.23;;;17.80;;
17441;SDS011;8838;50.144;8.176;2024-03-23T01:21:32;32.73;;;18.40;;
17441;SDS011;8838;50.144;8.176;2024-03-23T01:24:00;29.80;;;16.47;;
17441;SDS011;8838;50.144;8.176;2024-03-23T01:26:27;29.50;;;17.23;;
17441;SDS011;8838;50.144;8.176;2024-03-23T01:28:54;28.30;;;15.73;;
17441;SDS011;8838;50.144;8.176;2024-03-23T01:31:20;30.33;;;17.67;;
17441;SDS011;8838;50.144;8.176;2024-03-23T01:33:47;36.47;;;19.27;;
17441;SDS011;8838;50.144;8.176;2024-03-23T01:36:12;35.00;;;19.60;;
17441;SDS011;8838;50.144;8.176;2024-03-23T01:38:39;37.30;;;21.07;;
17441;SDS011;8838;50.144;8.176;2024-03-23T01:41:05;36.40;;;20.13;;
17441;SDS011;8838;50.144;8.176;2024-03-23T01:43:33;35.57;;;19.07;;
17441;SDS011;8838;50.144;8.176;2024-03-23T01:45:59;30.23;;;17.90;;
17441;SDS011;8838;50.144;8.176;2024-03-23T01:48:26;30.17;;;17.47;;
17441;SDS011;8838;50.144;8.176;2024-03-23T01:50:51;31.70;;;17.67;;
17441;SDS011;8838;50.144;8.176;2024-03-23T01:53:19;43.20;;;21.43;;
17441;SDS011;8838;50.144;8.176;2024-03-23T01:55:46;35.90;;;20.50;;
17441;SDS011;8838;50.144;8.176;2024-03-23T01:58:13;42.07;;;21.53;;
17441;SDS011;8838;50.144;8.176;2024-03-23T02:00:41;36.20;;;20.30;;
17441;SDS011;8838;50.144;8.176;2024-03-23T02:03:23;38.53;;;21.17;;
17441;SDS011;8838;50.144;8.176;2024-03-23T02:05:49;39.27;;;22.10;;
17441;SDS011;8838;50.144;8.176;2024-03-23T02:08:17;37.17;;;20.27;;
17441;SDS011;8838;50.144;8.176;2024-03-23T02:10:43;37.90;;;20.93;;
17441;SDS011;8838;50.144;8.176;2024-03-23T02:13:09;37.20;;;20.43;;
17441;SDS011;8838;50.144;8.176;2024-03-23T02:15:35;23.67;;;14.20;;
17441;SDS011;8838;50.144;8.176;2024-03-23T02:18:05;24.37;;;14.43;;
17441;SDS011;8838;50.144;8.176;2024-03-23T02:20:32;28.30;;;14.40;;
17441;SDS011;8838;50.144;8.176;2024-03-23T02:23:00;24.87;;;15.60;;
17441;SDS011;8838;50.144;8.176;2024-03-23T02:25:25;27.13;;;15.90;;
17441;SDS011;8838;50.144;8.176;2024-03-23T02:27:52;28.33;;;15.17;;
17441;SDS011;8838;50.144;8.176;2024-03-23T02:30:19;26.93;;;15.30;;
17441;SDS011;8838;50.144;8.176;2024-03-23T02:32:46;27.47;;;15.17;;
17441;SDS011;8838;50.144;8.176;2024-03-23T02:35:12;28.10;;;16.63;;
17441;SDS011;8838;50.144;8.176;2024-03-23T02:37:39;31.17;;;17.57;;
17441;SDS011;8838;50.144;8.176;2024-03-23T02:40:06;32.67;;;18.63;;
17441;SDS011;8838;50.144;8.176;2024-03-23T02:42:33;35.80;;;20.67;;
17441;SDS011;8838;50.144;8.176;2024-03-23T02:44:59;39.80;;;21.70;;
17441;SDS011;8838;50.144;8.176;2024-03-23T02:47:26;44.23;;;22.83;;
17441;SDS011;8838;50.144;8.176;2024-03-23T02:49:53;37.80;;;20.57;;
17441;SDS011;8838;50.144;8.176;2024-03-23T02:52:20;34.10;;;17.80;;
17441;SDS011;8838;50.144;8.176;2024-03-23T02:54:46;34.27;;;17.30;;
17441;SDS011;8838;50.144;8.176;2024-03-23T02:57:14;31.23;;;16.13;;
17441;SDS011;8838;50.144;8.176;2024-03-23T02:59:41;31.03;;;17.03;;
17441;SDS011;8838;50.144;8.176;2024-03-23T03:02:06;29.57;;;16.50;;
17441;SDS011;8838;50.144;8.176;2024-03-23T03:04:33;33.47;;;18.73;;
17441;SDS011;8838;50.144;8.176;2024-03-23T03:06:59;39.33;;;20.63;;
17441;SDS011;8838;50.144;8.176;2024-03-23T03:09:26;46.53;;;21.80;;
17441;SDS011;8838;50.144;8.176;2024-03-23T03:11:52;34.13;;;19.07;;
17441;SDS011;8838;50.144;8.176;2024-03-23T03:14:20;37.17;;;20.60;;
17441;SDS011;8838;50.144;8.176;2024-03-23T03:16:46;34.20;;;18.90;;
17441;SDS011;8838;50.144;8.176;2024-03-23T03:19:12;29.10;;;17.30;;
17441;SDS011;8838;50.144;8.176;2024-03-23T03:21:38;34.37;;;19.73;;
17441;SDS011;8838;50.144;8.176;2024-03-23T03:24:05;35.53;;;19.53;;
17441;SDS011;8838;50.144;8.176;2024-03-23T03:26:32;36.40;;;20.23;;
17441;SDS011;8838;50.144;8.176;2024-03-23T03:28:58;35.50;;;19.93;;
17441;SDS011;8838;50.144;8.176;2024-03-23T03:31:26;33.17;;;16.97;;
17441;SDS011;8838;50.144;8.176;2024-03-23T03:33:53;21.40;;;12.07;;
17441;SDS011;8838;50.144;8.176;2024-03-23T03:36:18;12.87;;;7.17;;
17441;SDS011;8838;50.144;8.176;2024-03-23T03:38:46;9.70;;;5.40;;
17441;SDS011;8838;50.144;8.176;2024-03-23T03:41:11;6.07;;;3.47;;
17441;SDS011;8838;50.144;8.176;2024-03-23T03:43:38;5.37;;;3.07;;
17441;SDS011;8838;50.144;8.176;2024-03-23T03:46:04;4.80;;;3.10;;
17441;SDS011;8838;50.144;8.176;2024-03-23T03:48:34;4.53;;;3.00;;
17441;SDS011;8838;50.144;8.176;2024-03-23T03:51:00;4.13;;;2.57;;
17441;SDS011;8838;50.144;8.176;2024-03-23T03:53:27;3.80;;;2.60;;
17441;SDS011;8838;50.144;8.176;2024-03-23T03:55:52;2.20;;;1.90;;
17441;SDS011;8838;50.144;8.176;2024-03-23T03:58:19;4.40;;;2.40;;
17441;SDS011;8838;50.144;8.176;2024-03-23T04:00:45;4.73;;;2.80;;
17441;SDS011;8838;50.144;8.176;2024-03-23T04:03:12;4.13;;;2.40;;
17441;SDS011;8838;50.144;8.176;2024-03-23T04:05:39;3.53;;;2.60;;
17441;SDS011;8838;50.144;8.176;2024-03-23T04:08:07;4.77;;;2.80;;
17441;SDS011;8838;50.144;8.176;2024-03-23T04:10:33;4.50;;;2.60;;
17441;SDS011;8838;50.144;8.176;2024-03-23T04:12:59;3.70;;;2.90;;
17441;SDS011;8838;50.144;8.176;2024-03-23T04:15:26;3.23;;;2.77;;
17441;SDS011;8838;50.144;8.176;2024-03-23T04:17:53;3.73;;;2.80;;
17441;SDS011;8838;50.144;8.176;2024-03-23T04:20:18;3.77;;;2.70;;
17441;SDS011;8838;50.144;8.176;2024-03-23T04:22:47;3.50;;;2.57;;
17441;SDS011;8838;50.144;8.176;2024-03-23T04:25:13;4.57;;;2.50;;
17441;SDS011;8838;50.144;8.176;2024-03-23T04:27:40;4.10;;;2.00;;
17441;SDS011;8838;50.144;8.176;2024-03-23T04:30:07;2.93;;;1.80;;
17441;SDS011;8838;50.144;8.176;2024-03-23T04:32:36;3.27;;;1.80;;
17441;SDS011;8838;50.144;8.176;2024-03-23T04:35:02;3.13;;;1.87;;
17441;SDS011;8838;50.144;8.176;2024-03-23T04:37:30;4.00;;;2.00;;
17441;SDS011;8838;50.144;8.176;2024-03-23T04:39:59;3.00;;;2.13;;
17441;SDS011;8838;50.144;8.176;2024-03-23T04:42:26;3.13;;;2.20;;
17441;SDS011;8838;50.144;8.176;2024-03-23T04:44:53;3.70;;;2.40;;
17441;SDS011;8838;50.144;8.176;2024-03-23T04:47:20;3.53;;;2.60;;
17441;SDS011;8838;50.144;8.176;2024-03-23T04:49:46;2.93;;;2.60;;
17441;SDS011;8838;50.144;8.176;2024-03-23T04:52:13;3.70;;;2.80;;
17441;SDS011;8838;50.144;8.176;2024-03-23T04:54:40;3.57;;;2.87;;
17441;SDS011;8838;50.144;8.176;2024-03-23T04:57:08;4.43;;;3.17;;
17441;SDS011;8838;50.144;8.176;2024-03-23T04:59:34;4.07;;;3.10;;
17441;SDS011;8838;50.144;8.176;2024-03-23T05:02:01;4.27;;;3.00;;
17441;SDS011;8838;50.144;8.176;2024-03-23T05:04:27;3.73;;;3.27;;
17441;SDS011;8838;50.144;8.176;2024-03-23T05:06:54;3.63;;;3.07;;
17441;SDS011;8838;50.144;8.176;2024-03-23T05:09:20;3.77;;;2.50;;
17441;SDS011;8838;50.144;8.176;2024-03-23T05:11:47;3.43;;;2.50;;
17441;SDS011;8838;50.144;8.176;2024-03-23T05:14:14;2.67;;;2.30;;
17441;SDS011;8838;50.144;8.176;2024-03-23T05:16:41;4.73;;;3.00;;
17441;SDS011;8838;50.144;8.176;2024-03-23T05:19:07;2.67;;;2.30;;
17441;SDS011;8838;50.144;8.176;2024-03-23T05:21:34;4.23;;;2.33;;
17441;SDS011;8838;50.144;8.176;2024-03-23T05:23:59;3.30;;;2.50;;
17441;SDS011;8838;50.144;8.176;2024-03-23T05:26:27;3.40;;;2.50;;
17441;SDS011;8838;50.144;8.176;2024-03-23T05:28:53;3.37;;;2.10;;
17441;SDS011;8838;50.144;8.176;2024-03-23T05:31:25;3.40;;;2.77;;
17441;SDS011;8838;50.144;8.176;2024-03-23T05:33:52;3.80;;;2.87;;
17441;SDS011;8838;50.144;8.176;2024-03-23T05:36:18;2.87;;;2.10;;
17441;SDS011;8838;50.144;8.176;2024-03-23T05:38:44;2.30;;;1.90;;
17441;SDS011;8838;50.144;8.176;2024-03-23T05:41:11;1.73;;;1.50;;
17441;SDS011;8838;50.144;8.176;2024-03-23T05:43:37;1.50;;;1.40;;
17441;SDS011;8838;50.144;8.176;2024-03-23T05:46:04;2.60;;;1.93;;
17441;SDS011;8838;50.144;8.176;2024-03-23T05:48:31;2.60;;;1.50;;
17441;SDS011;8838;50.144;8.176;2024-03-23T05:50:58;1.40;;;1.30;;
17441;SDS011;8838;50.144;8.176;2024-03-23T05:53:24;2.10;;;1.53;;
17441;SDS011;8838;50.144;8.176;2024-03-23T05:55:51;3.10;;;1.33;;
17441;SDS011;8838;50.144;8.176;2024-03-23T05:58:25;1.50;;;1.20;;
17441;SDS011;8838;50.144;8.176;2024-03-23T06:00:56;2.07;;;1.10;;
17441;SDS011;8838;50.144;8.176;2024-03-23T06:03:23;1.00;;;0.90;;
17441;SDS011;8838;50.144;8.176;2024-03-23T06:05:51;3.73;;;1.20;;
17441;SDS011;8838;50.144;8.176;2024-03-23T06:08:18;1.73;;;1.07;;
17441;SDS011;8838;50.144;8.176;2024-03-23T06:10:45;0.90;;;0.80;;
17441;SDS011;8838;50.144;8.176;2024-03-23T06:13:11;2.00;;;1.00;;
17441;SDS011;8838;50.144;8.176;2024-03-23T06:15:38;1.93;;;1.07;;
17441;SDS011;8838;50.144;8.176;2024-03-23T06:18:04;2.30;;;1.30;;
17441;SDS011;8838;50.144;8.176;2024-03-23T06:20:32;3.23;;;1.10;;
17441;SDS011;8838;50.144;8.176;2024-03-23T06:23:00;2.40;;;1.20;;
17441;SDS011;8838;50.144;8.176;2024-03-23T06:25:26;4.80;;;1.40;;
17441;SDS011;8838;50.144;8.176;2024-03-23T06:27:52;4.03;;;1.87;;
17441;SDS011;8838;50.144;8.176;2024-03-23T06:30:19;3.67;;;1.63;;
17441;SDS011;8838;50.144;8.176;2024-03-23T06:32:45;4.17;;;1.97;;
17441;SDS011;8838;50.144;8.176;2024-03-23T06:35:11;6.23;;;2.33;;
17441;SDS011;8838;50.144;8.176;2024-03-23T06:37:37;5.47;;;1.97;;
17441;SDS011;8838;50.144;8.176;2024-03-23T06:40:08;6.17;;;2.37;;
17441;SDS011;8838;50.144;8.176;2024-03-23T06:42:34;6.53;;;2.53;;
17441;SDS011;8838;50.144;8.176;2024-03-23T06:45:01;11.10;;;2.53;;
17441;SDS011;8838;50.144;8.176;2024-03-23T06:47:29;11.13;;;2.57;;
17441;SDS011;8838;50.144;8.176;2024-03-23T06:49:55;6.17;;;2.70;;
17441;SDS011;8838;50.144;8.176;2024-03-23T06:52:22;6.80;;;2.00;;
17441;SDS011;8838;50.144;8.176;2024-03-23T06:54:48;5.80;;;2.33;;
17441;SDS011;8838;50.144;8.176;2024-03-23T06:57:16;8.13;;;3.00;;
17441;SDS011;8838;50.144;8.176;2024-03-23T06:59:42;10.70;;;3.83;;
17441;SDS011;8838;50.144;8.176;2024-03-23T07:02:09;8.07;;;3.40;;
17441;SDS011;8838;50.144;8.176;2024-03-23T07:04:35;10.80;;;4.20;;
17441;SDS011;8838;50.144;8.176;2024-03-23T07:07:02;13.93;;;4.60;;
17441;SDS011;8838;50.144;8.176;2024-03-23T07:09:27;11.37;;;4.50;;
17441;SDS011;8838;50.144;8.176;2024-03-23T07:11:54;14.07;;;5.20;;
17441;SDS011;8838;50.144;8.176;2024-03-23T07:14:22;12.37;;;5.83;;
17441;SDS011;8838;50.144;8.176;2024-03-23T07:16:49;11.87;;;5.20;;
17441;SDS011;8838;50.144;8.176;2024-03-23T07:19:15;11.73;;;4.67;;
17441;SDS011;8838;50.144;8.176;2024-03-23T07:21:43;12.53;;;5.30;;
17441;SDS011;8838;50.144;8.176;2024-03-23T07:24:09;11.90;;;5.63;;
17441;SDS011;8838;50.144;8.176;2024-03-23T07:26:36;11.50;;;5.70;;
17441;SDS011;8838;50.144;8.176;2024-03-23T07:29:02;13.17;;;5.33;;
17441;SDS011;8838;50.144;8.176;2024-03-23T07:31:33;11.37;;;5.70;;
17441;SDS011;8838;50.144;8.176;2024-03-23T07:33:59;12.17;;;6.97;;
17441;SDS011;8838;50.144;8.176;2024-03-23T07:36:26;12.37;;;8.20;;
17441;SDS011;8838;50.144;8.176;2024-03-23T07:38:52;13.67;;;7.93;;
17441;SDS011;8838;50.144;8.176;2024-03-23T07:41:19;16.53;;;11.80;;
17441;SDS011;8838;50.144;8.176;2024-03-23T07:43:46;23.53;;;16.80;;
17441;SDS011;8838;50.144;8.176;2024-03-23T07:46:14;14.87;;;7.17;;
17441;SDS011;8838;50.144;8.176;2024-03-23T07:48:42;12.87;;;7.50;;
17441;SDS011;8838;50.144;8.176;2024-03-23T07:51:10;12.90;;;5.60;;
17441;SDS011;8838;50.144;8.176;2024-03-23T07:53:42;13.63;;;5.77;;
17441;SDS011;8838;50.144;8.176;2024-03-23T07:56:10;13.20;;;6.13;;
17441;SDS011;8838;50.144;8.176;2024-03-23T07:58:36;14.73;;;5.83;;
17441;SDS011;8838;50.144;8.176;2024-03-23T08:01:04;16.60;;;9.60;;
17441;SDS011;8838;50.144;8.176;2024-03-23T08:03:30;18.83;;;9.07;;
17441;SDS011;8838;50.144;8.176;2024-03-23T08:05:58;18.77;;;8.13;;
17441;SDS011;8838;50.144;8.176;2024-03-23T08:08:32;19.93;;;6.30;;
17441;SDS011;8838;50.144;8.176;2024-03-23T08:10:58;10.73;;;4.83;;
17441;SDS011;8838;50.144;8.176;2024-03-23T08:13:24;12.50;;;4.70;;
17441;SDS011;8838;50.144;8.176;2024-03-23T08:15:51;15.87;;;4.10;;
17441;SDS011;8838;50.144;8.176;2024-03-23T08:18:17;12.30;;;4.17;;
17441;SDS011;8838;50.144;8.176;2024-03-23T08:20:44;10.63;;;3.67;;
17441;SDS011;8838;50.144;8.176;2024-03-23T08:23:11;14.00;;;6.40;;
17441;SDS011;8838;50.144;8.176;2024-03-23T08:25:38;11.83;;;3.57;;
17441;SDS011;8838;50.144;8.176;2024-03-23T08:28:04;14.00;;;4.27;;
17441;SDS011;8838;50.144;8.176;2024-03-23T08:30:34;10.73;;;3.85;;
17441;SDS011;8838;50.144;8.176;2024-03-23T08:33:00;11.13;;;4.43;;
17441;SDS011;8838;50.144;8.176;2024-03-23T08:35:27;12.17;;;5.03;;
17441;SDS011;8838;50.144;8.176;2024-03-23T08:37:53;9.93;;;4.20;;
17441;SDS011;8838;50.144;8.176;2024-03-23T08:40:21;13.40;;;4.20;;
17441;SDS011;8838;50.144;8.176;2024-03-23T08:42:47;10.87;;;4.03;;
17441;SDS011;8838;50.144;8.176;2024-03-23T08:45:14;9.00;;;4.30;;
17441;SDS011;8838;50.144;8.176;2024-03-23T08:47:40;12.37;;;5.83;;
17441;SDS011;8838;50.144;8.176;2024-03-23T08:50:07;13.07;;;4.87;;
17441;SDS011;8838;50.144;8.176;2024-03-23T08:52:33;12.93;;;4.97;;
17441;SDS011;8838;50.144;8.176;2024-03-23T08:55:00;12.75;;;4.13;;
17441;SDS011;8838;50.144;8.176;2024-03-23T08:57:27;10.57;;;4.00;;
17441;SDS011;8838;50.144;8.176;2024-03-23T08:59:54;11.73;;;3.83;;
17441;SDS011;8838;50.144;8.176;2024-03-23T09:02:20;15.90;;;4.28;;
17441;SDS011;8838;50.144;8.176;2024-03-23T09:04:47;11.07;;;3.55;;
17441;SDS011;8838;50.144;8.176;2024-03-23T09:07:12;9.40;;;2.97;;
17441;SDS011;8838;50.144;8.176;2024-03-23T09:09:39;14.32;;;4.20;;
17441;SDS011;8838;50.144;8.176;2024-03-23T09:12:05;11.18;;;3.40;;
17441;SDS011;8838;50.144;8.176;2024-03-23T09:14:34;13.05;;;4.63;;
17441;SDS011;8838;50.144;8.176;2024-03-23T09:16:59;12.98;;;3.00;;
17441;SDS011;8838;50.144;8.176;2024-03-23T09:19:27;10.93;;;3.03;;
17441;SDS011;8838;50.144;8.176;2024-03-23T09:21:53;8.98;;;2.72;;
17441;SDS011;8838;50.144;8.176;2024-03-23T09:24:20;11.10;;;2.90;;
17441;SDS011;8838;50.144;8.176;2024-03-23T09:26:46;15.40;;;4.93;;
17441;SDS011;8838;50.144;8.176;2024-03-23T09:29:13;12.30;;;3.58;;
17441;SDS011;8838;50.144;8.176;2024-03-23T09:31:40;15.95;;;7.57;;
17441;SDS011;8838;50.144;8.176;2024-03-23T09:34:07;22.17;;;10.93;;
17441;SDS011;8838;50.144;8.176;2024-03-23T09:36:33;14.23;;;5.55;;
17441;SDS011;8838;50.144;8.176;2024-03-23T09:38:59;11.35;;;5.55;;
17441;SDS011;8838;50.144;8.176;2024-03-23T09:41:25;10.75;;;2.97;;
17441;SDS011;8838;50.144;8.176;2024-03-23T09:43:52;8.13;;;2.20;;
17441;SDS011;8838;50.144;8.176;2024-03-23T09:46:18;9.93;;;3.17;;
17441;SDS011;8838;50.144;8.176;2024-03-23T09:48:47;12.00;;;4.90;;
17441;SDS011;8838;50.144;8.176;2024-03-23T09:51:13;11.70;;;3.28;;
17441;SDS011;8838;50.144;8.176;2024-03-23T09:53:40;12.75;;;3.40;;
17441;SDS011;8838;50.144;8.176;2024-03-23T09:56:07;16.25;;;3.67;;
17441;SDS011;8838;50.144;8.176;2024-03-23T09:58:34;7.43;;;2.55;;
17441;SDS011;8838;50.144;8.176;2024-03-23T10:01:00;7.53;;;2.08;;
17441;SDS011;8838;50.144;8.176;2024-03-23T10:03:28;12.32;;;3.55;;
17441;SDS011;8838;50.144;8.176;2024-03-23T10:06:02;10.13;;;2.97;;
17441;SDS011;8838;50.144;8.176;2024-03-23T10:08:30;9.23;;;3.40;;
17441;SDS011;8838;50.144;8.176;2024-03-23T10:10:56;10.82;;;2.70;;
17441;SDS011;8838;50.144;8.176;2024-03-23T10:13:26;10.18;;;2.50;;
17441;SDS011;8838;50.144;8.176;2024-03-23T10:15:54;10.40;;;2.38;;
17441;SDS011;8838;50.144;8.176;2024-03-23T10:18:23;14.40;;;2.07;;
17441;SDS011;8838;50.144;8.176;2024-03-23T10:21:06;14.63;;;4.67;;
17441;SDS011;8838;50.144;8.176;2024-03-23T10:23:36;15.53;;;5.93;;
17441;SDS011;8838;50.144;8.176;2024-03-23T10:26:12;6.67;;;1.80;;
17441;SDS011;8838;50.144;8.176;2024-03-23T10:28:50;7.97;;;1.83;;
17441;SDS011;8838;50.144;8.176;2024-03-23T10:31:17;8.47;;;2.13;;
17441;SDS011;8838;50.144;8.176;2024-03-23T10:33:44;6.73;;;1.73;;
17441;SDS011;8838;50.144;8.176;2024-03-23T10:36:13;5.07;;;1.70;;
17441;SDS011;8838;50.144;8.176;2024-03-23T10:38:40;7.37;;;1.73;;
17441;SDS011;8838;50.144;8.176;2024-03-23T10:41:07;7.43;;;1.67;;
17441;SDS011;8838;50.144;8.176;2024-03-23T10:43:36;5.47;;;1.63;;
17441;SDS011;8838;50.144;8.176;2024-03-23T10:46:02;11.13;;;2.10;;
17441;SDS011;8838;50.144;8.176;2024-03-23T10:48:29;7.30;;;2.50;;
17441;SDS011;8838;50.144;8.176;2024-03-23T10:50:56;9.03;;;2.77;;
17441;SDS011;8838;50.144;8.176;2024-03-23T10:53:26;12.73;;;3.17;;
17441;SDS011;8838;50.144;8.176;2024-03-23T10:55:53;9.00;;;2.80;;
17441;SDS011;8838;50.144;8.176;2024-03-23T10:58:21;7.90;;;2.77;;
17441;SDS011;8838;50.144;8.176;2024-03-23T11:00:52;11.20;;;3.17;;
17441;SDS011;8838;50.144;8.176;2024-03-23T11:03:29;9.60;;;2.50;;
17441;SDS011;8838;50.144;8.176;2024-03-23T11:05:59;11.60;;;2.37;;
17441;SDS011;8838;50.144;8.176;2024-03-23T11:08:35;8.47;;;3.13;;
17441;SDS011;8838;50.144;8.176;2024-03-23T11:11:11;7.43;;;2.83;;
17441;SDS011;8838;50.144;8.176;2024-03-23T11:13:39;8.53;;;2.83;;
17441;SDS011;8838;50.144;8.176;2024-03-23T11:16:12;8.30;;;2.67;;
17441;SDS011;8838;50.144;8.176;2024-03-23T11:18:40;8.20;;;2.60;;
17441;SDS011;8838;50.144;8.176;2024-03-23T11:21:07;9.07;;;2.83;;
17441;SDS011;8838;50.144;8.176;2024-03-23T11:23:35;6.90;;;2.37;;
17441;SDS011;8838;50.144;8.176;2024-03-23T11:26:01;7.90;;;2.43;;
17441;SDS011;8838;50.144;8.176;2024-03-23T11:28:29;9.10;;;2.47;;
17441;SDS011;8838;50.144;8.176;2024-03-23T11:30:55;7.00;;;2.35;;
17441;SDS011;8838;50.144;8.176;2024-03-23T11:33:22;6.90;;;2.40;;
17441;SDS011;8838;50.144;8.176;2024-03-23T11:35:48;6.93;;;2.42;;
17441;SDS011;8838;50.144;8.176;2024-03-23T11:38:16;8.70;;;2.42;;
17441;SDS011;8838;50.144;8.176;2024-03-23T11:40:45;4.45;;;2.13;;
17441;SDS011;8838;50.144;8.176;2024-03-23T11:43:13;6.53;;;2.45;;
17441;SDS011;8838;50.144;8.176;2024-03-23T11:45:42;5.38;;;2.08;;
17441;SDS011;8838;50.144;8.176;2024-03-23T11:48:09;5.68;;;2.00;;
17441;SDS011;8838;50.144;8.176;2024-03-23T11:50:37;10.48;;;2.00;;
17441;SDS011;8838;50.144;8.176;2024-03-23T11:53:11;7.25;;;2.33;;
17441;SDS011;8838;50.144;8.176;2024-03-23T11:55:39;7.55;;;1.95;;
17441;SDS011;8838;50.144;8.176;2024-03-23T11:58:11;7.97;;;2.00;;
17441;SDS011;8838;50.144;8.176;2024-03-23T12:00:37;6.50;;;1.85;;
17441;SDS011;8838;50.144;8.176;2024-03-23T12:03:05;4.82;;;1.90;;
17441;SDS011;8838;50.144;8.176;2024-03-23T12:05:31;6.32;;;2.00;;
17441;SDS011;8838;50.144;8.176;2024-03-23T12:10:49;6.38;;;1.83;;
17441;SDS011;8838;50.144;8.176;2024-03-23T12:13:18;8.32;;;2.42;;
17441;SDS011;8838;50.144;8.176;2024-03-23T12:15:46;7.35;;;2.03;;
17441;SDS011;8838;50.144;8.176;2024-03-23T12:18:12;7.70;;;2.28;;
17441;SDS011;8838;50.144;8.176;2024-03-23T12:20:39;4.78;;;1.73;;
17441;SDS011;8838;50.144;8.176;2024-03-23T12:23:06;7.63;;;2.28;;
17441;SDS011;8838;50.144;8.176;2024-03-23T12:25:34;6.25;;;2.33;;
17441;SDS011;8838;50.144;8.176;2024-03-23T12:28:00;6.07;;;2.30;;
17441;SDS011;8838;50.144;8.176;2024-03-23T12:30:28;6.93;;;2.22;;
17441;SDS011;8838;50.144;8.176;2024-03-23T12:32:54;6.95;;;1.95;;
17441;SDS011;8838;50.144;8.176;2024-03-23T12:35:21;7.93;;;2.20;;
17441;SDS011;8838;50.144;8.176;2024-03-23T12:37:47;7.47;;;2.17;;
17441;SDS011;8838;50.144;8.176;2024-03-23T12:40:14;9.23;;;2.80;;
17441;SDS011;8838;50.144;8.176;2024-03-23T12:42:40;5.73;;;1.50;;
17441;SDS011;8838;50.144;8.176;2024-03-23T12:45:07;3.93;;;1.70;;
17441;SDS011;8838;50.144;8.176;2024-03-23T12:47:35;4.57;;;1.77;;
17441;SDS011;8838;50.144;8.176;2024-03-23T12:50:01;4.50;;;1.63;;
17441;SDS011;8838;50.144;8.176;2024-03-23T12:52:28;5.07;;;1.13;;
17441;SDS011;8838;50.144;8.176;2024-03-23T12:54:55;2.83;;;1.00;;
17441;SDS011;8838;50.144;8.176;2024-03-23T12:57:21;2.57;;;1.03;;
17441;SDS011;8838;50.144;8.176;2024-03-23T12:59:49;2.80;;;0.83;;
17441;SDS011;8838;50.144;8.176;2024-03-23T13:02:16;2.43;;;0.80;;
17441;SDS011;8838;50.144;8.176;2024-03-23T13:04:45;1.53;;;1.03;;
17441;SDS011;8838;50.144;8.176;2024-03-23T13:07:12;2.73;;;0.83;;
17441;SDS011;8838;50.144;8.176;2024-03-23T13:09:39;1.47;;;0.83;;
17441;SDS011;8838;50.144;8.176;2024-03-23T13:12:05;4.67;;;1.83;;
17441;SDS011;8838;50.144;8.176;2024-03-23T13:14:32;6.00;;;2.10;;
17441;SDS011;8838;50.144;8.176;2024-03-23T13:16:59;1.73;;;0.67;;
17441;SDS011;8838;50.144;8.176;2024-03-23T13:19:27;2.30;;;1.00;;
17441;SDS011;8838;50.144;8.176;2024-03-23T13:21:57;2.27;;;1.33;;
17441;SDS011;8838;50.144;8.176;2024-03-23T13:24:24;2.77;;;0.90;;
17441;SDS011;8838;50.144;8.176;2024-03-23T13:26:50;3.33;;;0.90;;
17441;SDS011;8838;50.144;8.176;2024-03-23T13:29:17;3.43;;;1.17;;
17441;SDS011;8838;50.144;8.176;2024-03-23T13:31:43;2.17;;;1.00;;
17441;SDS011;8838;50.144;8.176;2024-03-23T13:34:10;2.67;;;0.60;;
17441;SDS011;8838;50.144;8.176;2024-03-23T13:36:36;1.10;;;0.50;;
17441;SDS011;8838;50.144;8.176;2024-03-23T13:39:04;1.67;;;0.60;;
17441;SDS011;8838;50.144;8.176;2024-03-23T13:41:35;2.00;;;0.70;;
17441;SDS011;8838;50.144;8.176;2024-03-23T13:44:03;2.10;;;0.70;;
17441;SDS011;8838;50.144;8.176;2024-03-23T13:46:30;2.90;;;0.80;;
17441;SDS011;8838;50.144;8.176;2024-03-23T13:48:56;1.27;;;0.60;;
17441;SDS011;8838;50.144;8.176;2024-03-23T13:51:22;1.83;;;0.60;;
17441;SDS011;8838;50.144;8.176;2024-03-23T13:53:52;2.40;;;0.50;;
17441;SDS011;8838;50.144;8.176;2024-03-23T13:56:19;2.10;;;0.60;;
17441;SDS011;8838;50.144;8.176;2024-03-23T13:58:46;1.97;;;0.60;;
17441;SDS011;8838;50.144;8.176;2024-03-23T14:01:13;2.10;;;0.60;;
17441;SDS011;8838;50.144;8.176;2024-03-23T14:03:40;1.57;;;0.80;;
17441;SDS011;8838;50.144;8.176;2024-03-23T14:06:06;1.93;;;0.80;;
17441;SDS011;8838;50.144;8.176;2024-03-23T14:08:34;0.43;;;0.40;;
17441;SDS011;8838;50.144;8.176;2024-03-23T14:11:01;0.93;;;0.30;;
17441;SDS011;8838;50.144;8.176;2024-03-23T14:13:31;1.30;;;0.60;;
17441;SDS011;8838;50.144;8.176;2024-03-23T14:15:57;2.25;;;0.70;;
17441;SDS011;8838;50.144;8.176;2024-03-23T14:18:24;2.50;;;0.80;;
17441;SDS011;8838;50.144;8.176;2024-03-23T14:20:51;2.25;;;0.73;;
17441;SDS011;8838;50.144;8.176;2024-03-23T14:23:21;2.65;;;0.80;;
17441;SDS011;8838;50.144;8.176;2024-03-23T14:25:47;1.40;;;0.60;;
17441;SDS011;8838;50.144;8.176;2024-03-23T14:28:14;1.65;;;0.50;;
17441;SDS011;8838;50.144;8.176;2024-03-23T14:30:42;3.50;;;0.80;;
17441;SDS011;8838;50.144;8.176;2024-03-23T14:33:09;3.90;;;0.60;;
17441;SDS011;8838;50.144;8.176;2024-03-23T14:35:35;2.83;;;0.85;;
17441;SDS011;8838;50.144;8.176;2024-03-23T14:38:03;1.95;;;0.70;;
17441;SDS011;8838;50.144;8.176;2024-03-23T14:40:29;1.30;;;0.60;;
17441;SDS011;8838;50.144;8.176;2024-03-23T14:42:56;3.35;;;0.90;;
17441;SDS011;8838;50.144;8.176;2024-03-23T14:45:22;4.03;;;1.15;;
17441;SDS011;8838;50.144;8.176;2024-03-23T14:47:51;2.90;;;0.60;;
17441;SDS011;8838;50.144;8.176;2024-03-23T14:50:17;1.98;;;0.50;;
17441;SDS011;8838;50.144;8.176;2024-03-23T14:52:44;2.85;;;0.80;;
17441;SDS011;8838;50.144;8.176;2024-03-23T14:55:10;2.50;;;0.90;;
17441;SDS011;8838;50.144;8.176;2024-03-23T14:57:37;2.30;;;0.98;;
17441;SDS011;8838;50.144;8.176;2024-03-23T15:00:05;4.60;;;0.90;;
17441;SDS011;8838;50.144;8.176;2024-03-23T15:02:35;2.92;;;0.80;;
17441;SDS011;8838;50.144;8.176;2024-03-23T15:05:02;3.47;;;0.80;;
17441;SDS011;8838;50.144;8.176;2024-03-23T15:07:30;1.10;;;0.67;;
17441;SDS011;8838;50.144;8.176;2024-03-23T15:09:55;3.67;;;0.90;;
17441;SDS011;8838;50.144;8.176;2024-03-23T15:12:22;1.73;;;0.80;;
17441;SDS011;8838;50.144;8.176;2024-03-23T15:14:48;2.60;;;1.00;;
17441;SDS011;8838;50.144;8.176;2024-03-23T15:17:15;2.50;;;0.77;;
17441;SDS011;8838;50.144;8.176;2024-03-23T15:19:41;3.33;;;0.83;;
17441;SDS011;8838;50.144;8.176;2024-03-23T15:22:09;6.53;;;1.30;;
17441;SDS011;8838;50.144;8.176;2024-03-23T15:24:35;3.57;;;1.00;;
17441;SDS011;8838;50.144;8.176;2024-03-23T15:27:02;3.73;;;1.10;;
17441;SDS011;8838;50.144;8.176;2024-03-23T15:29:28;2.50;;;1.10;;
17441;SDS011;8838;50.144;8.176;2024-03-23T15:31:56;4.27;;;1.00;;
17441;SDS011;8838;50.144;8.176;2024-03-23T15:34:22;3.07;;;1.10;;
17441;SDS011;8838;50.144;8.176;2024-03-23T15:36:49;4.47;;;1.20;;
17441;SDS011;8838;50.144;8.176;2024-03-23T15:39:17;5.37;;;1.40;;
17441;SDS011;8838;50.144;8.176;2024-03-23T15:41:44;5.80;;;1.80;;
17441;SDS011;8838;50.144;8.176;2024-03-23T15:44:10;4.47;;;1.60;;
17441;SDS011;8838;50.144;8.176;2024-03-23T15:46:37;5.20;;;1.77;;
17441;SDS011;8838;50.144;8.176;2024-03-23T15:49:03;7.90;;;2.47;;